sensor_id;sensor_type;location;lat;lon;timestamp;temperature;humidity
66422;DHT22;53228;51.380;0.098;2023-11-21T00:00:17;9.90;99.90
66422;DHT22;53228;51.380;0.098;2023-11-21T00:02:45;9.90;99.90
66422;DHT22;53228;51.380;0.098;2023-11-21T00:05:14;9.90;99.90
66422;DHT22;53228;51.380;0.098;2023-11-21T00:07:43;10.00;99.90
66422;DHT22;53228;51.380;0.098;2023-11-21T00:10:12;10.00;99.90
66422;DHT22;53228;51.380;0.098;2023-11-21T00:12:42;10.00;99.90
66422;DHT22;53228;51.380;0.098;2023-11-21T00:17:41;9.90;99.90
66422;DHT22;53228;51.380;0.098;2023-11-21T00:20:10;9.90;99.90
66422;DHT22;53228;51.380;0.098;2023-11-21T00:22:41;9.90;99.90
66422;DHT22;53228;51.380;0.098;2023-11-21T00:25:09;9.90;99.90
66422;DHT22;53228;51.380;0.098;2023-11-21T00:27:37;9.90;99.90
66422;DHT22;53228;51.380;0.098;2023-11-21T00:32:35;9.90;99.90
66422;DHT22;53228;51.380;0.098;2023-11-21T00:35:04;9.80;99.90
66422;DHT22;53228;51.380;0.098;2023-11-21T00:37:33;9.80;99.90
66422;DHT22;53228;51.380;0.098;2023-11-21T00:40:01;9.80;99.90
66422;DHT22;53228;51.380;0.098;2023-11-21T00:42:34;9.80;99.90
66422;DHT22;53228;51.380;0.098;2023-11-21T00:45:02;9.80;99.90
66422;DHT22;53228;51.380;0.098;2023-11-21T00:47:31;9.80;99.90
66422;DHT22;53228;51.380;0.098;2023-11-21T00:49:59;9.80;99.90
66422;DHT22;53228;51.380;0.098;2023-11-21T00:52:27;9.70;99.90
66422;DHT22;53228;51.380;0.098;2023-11-21T00:54:54;9.70;99.90
66422;DHT22;53228;51.380;0.098;2023-11-21T00:57:22;9.70;99.90
66422;DHT22;53228;51.380;0.098;2023-11-21T00:59:51;9.70;99.90
66422;DHT22;53228;51.380;0.098;2023-11-21T01:02:19;9.70;99.90
66422;DHT22;53228;51.380;0.098;2023-11-21T01:04:47;9.70;99.90
66422;DHT22;53228;51.380;0.098;2023-11-21T01:07:15;9.70;99.90
66422;DHT22;53228;51.380;0.098;2023-11-21T01:09:43;9.70;99.90
66422;DHT22;53228;51.380;0.098;2023-11-21T01:12:11;9.60;99.90
66422;DHT22;53228;51.380;0.098;2023-11-21T01:14:40;9.60;99.90
66422;DHT22;53228;51.380;0.098;2023-11-21T01:17:08;9.60;99.90
66422;DHT22;53228;51.380;0.098;2023-11-21T01:19:36;9.60;99.90
66422;DHT22;53228;51.380;0.098;2023-11-21T01:22:04;9.60;99.90
66422;DHT22;53228;51.380;0.098;2023-11-21T01:24:32;9.60;99.90
66422;DHT22;53228;51.380;0.098;2023-11-21T01:27:00;9.60;99.90
66422;DHT22;53228;51.380;0.098;2023-11-21T01:29:27;9.60;99.90
66422;DHT22;53228;51.380;0.098;2023-11-21T01:31:56;9.60;99.90
66422;DHT22;53228;51.380;0.098;2023-11-21T01:34:25;9.50;99.90
66422;DHT22;53228;51.380;0.098;2023-11-21T01:36:53;9.50;99.90
66422;DHT22;53228;51.380;0.098;2023-11-21T01:39:21;9.50;99.90
66422;DHT22;53228;51.380;0.098;2023-11-21T01:41:51;9.50;99.90
66422;DHT22;53228;51.380;0.098;2023-11-21T01:44:20;9.50;99.90
66422;DHT22;53228;51.380;0.098;2023-11-21T01:46:48;9.40;99.90
66422;DHT22;53228;51.380;0.098;2023-11-21T01:49:16;9.40;99.90
66422;DHT22;53228;51.380;0.098;2023-11-21T01:51:48;9.40;99.90
66422;DHT22;53228;51.380;0.098;2023-11-21T01:54:20;9.40;99.90
66422;DHT22;53228;51.380;0.098;2023-11-21T01:56:48;9.40;99.90
66422;DHT22;53228;51.380;0.098;2023-11-21T01:59:19;9.40;99.90
66422;DHT22;53228;51.380;0.098;2023-11-21T02:01:48;9.40;99.90
66422;DHT22;53228;51.380;0.098;2023-11-21T02:04:18;9.40;99.90
66422;DHT22;53228;51.380;0.098;2023-11-21T02:06:47;9.30;99.90
66422;DHT22;53228;51.380;0.098;2023-11-21T02:09:15;9.30;99.90
66422;DHT22;53228;51.380;0.098;2023-11-21T02:11:43;9.30;99.90
66422;DHT22;53228;51.380;0.098;2023-11-21T02:14:11;9.30;99.90
66422;DHT22;53228;51.380;0.098;2023-11-21T02:16:41;9.30;99.90
66422;DHT22;53228;51.380;0.098;2023-11-21T02:19:18;9.30;99.90
66422;DHT22;53228;51.380;0.098;2023-11-21T02:21:53;9.30;99.90
66422;DHT22;53228;51.380;0.098;2023-11-21T02:24:21;9.30;99.90
66422;DHT22;53228;51.380;0.098;2023-11-21T02:26:50;9.20;99.90
66422;DHT22;53228;51.380;0.098;2023-11-21T02:29:21;9.20;99.90
66422;DHT22;53228;51.380;0.098;2023-11-21T02:31:58;9.20;99.90
66422;DHT22;53228;51.380;0.098;2023-11-21T02:34:25;9.20;99.90
66422;DHT22;53228;51.380;0.098;2023-11-21T02:36:53;9.20;99.90
66422;DHT22;53228;51.380;0.098;2023-11-21T02:39:21;9.20;99.90
66422;DHT22;53228;51.380;0.098;2023-11-21T02:41:52;9.20;99.90
66422;DHT22;53228;51.380;0.098;2023-11-21T02:44:20;9.10;99.90
66422;DHT22;53228;51.380;0.098;2023-11-21T02:46:48;9.10;99.90
66422;DHT22;53228;51.380;0.098;2023-11-21T02:49:16;9.10;99.90
66422;DHT22;53228;51.380;0.098;2023-11-21T02:51:43;9.10;99.90
66422;DHT22;53228;51.380;0.098;2023-11-21T02:54:11;9.10;99.90
66422;DHT22;53228;51.380;0.098;2023-11-21T02:56:39;9.00;99.90
66422;DHT22;53228;51.380;0.098;2023-11-21T02:59:07;9.10;99.90
66422;DHT22;53228;51.380;0.098;2023-11-21T03:01:35;9.00;99.90
66422;DHT22;53228;51.380;0.098;2023-11-21T03:04:03;9.00;99.90
66422;DHT22;53228;51.380;0.098;2023-11-21T03:06:30;9.00;99.90
66422;DHT22;53228;51.380;0.098;2023-11-21T03:08:58;9.00;99.90
66422;DHT22;53228;51.380;0.098;2023-11-21T03:11:26;9.00;99.90
66422;DHT22;53228;51.380;0.098;2023-11-21T03:13:53;9.00;99.90
66422;DHT22;53228;51.380;0.098;2023-11-21T03:16:21;8.90;99.90
66422;DHT22;53228;51.380;0.098;2023-11-21T03:18:49;8.90;99.90
66422;DHT22;53228;51.380;0.098;2023-11-21T03:21:18;8.90;99.90
66422;DHT22;53228;51.380;0.098;2023-11-21T03:23:46;8.90;99.90
66422;DHT22;53228;51.380;0.098;2023-11-21T03:26:14;8.90;99.90
66422;DHT22;53228;51.380;0.098;2023-11-21T03:28:41;8.90;99.90
66422;DHT22;53228;51.380;0.098;2023-11-21T03:31:09;8.90;99.90
66422;DHT22;53228;51.380;0.098;2023-11-21T03:33:37;8.90;99.90
66422;DHT22;53228;51.380;0.098;2023-11-21T03:36:05;8.90;99.90
66422;DHT22;53228;51.380;0.098;2023-11-21T03:38:32;8.90;99.90
66422;DHT22;53228;51.380;0.098;2023-11-21T03:41:00;8.90;99.90
66422;DHT22;53228;51.380;0.098;2023-11-21T03:43:29;8.90;99.90
66422;DHT22;53228;51.380;0.098;2023-11-21T03:45:56;8.90;99.90
66422;DHT22;53228;51.380;0.098;2023-11-21T03:48:24;8.90;99.90
66422;DHT22;53228;51.380;0.098;2023-11-21T03:50:52;8.90;99.90
66422;DHT22;53228;51.380;0.098;2023-11-21T03:53:19;8.90;99.90
66422;DHT22;53228;51.380;0.098;2023-11-21T03:55:47;8.90;99.90
66422;DHT22;53228;51.380;0.098;2023-11-21T03:58:15;8.90;99.90
66422;DHT22;53228;51.380;0.098;2023-11-21T04:00:42;9.50;99.90
66422;DHT22;53228;51.380;0.098;2023-11-21T04:03:10;8.80;99.90
66422;DHT22;53228;51.380;0.098;2023-11-21T04:05:37;8.80;99.90
66422;DHT22;53228;51.380;0.098;2023-11-21T04:08:05;8.80;99.90
66422;DHT22;53228;51.380;0.098;2023-11-21T04:10:33;8.80;99.90
66422;DHT22;53228;51.380;0.098;2023-11-21T04:13:00;8.80;99.90
66422;DHT22;53228;51.380;0.098;2023-11-21T04:15:28;8.80;99.90
66422;DHT22;53228;51.380;0.098;2023-11-21T04:17:56;8.80;99.90
66422;DHT22;53228;51.380;0.098;2023-11-21T04:20:24;8.80;99.90
66422;DHT22;53228;51.380;0.098;2023-11-21T04:22:52;8.70;99.90
66422;DHT22;53228;51.380;0.098;2023-11-21T04:25:19;8.70;99.90
66422;DHT22;53228;51.380;0.098;2023-11-21T04:27:47;8.70;99.90
66422;DHT22;53228;51.380;0.098;2023-11-21T04:30:15;8.70;99.90
66422;DHT22;53228;51.380;0.098;2023-11-21T04:32:43;8.70;99.90
66422;DHT22;53228;51.380;0.098;2023-11-21T04:35:11;8.70;99.90
66422;DHT22;53228;51.380;0.098;2023-11-21T04:37:38;8.70;99.90
66422;DHT22;53228;51.380;0.098;2023-11-21T04:40:07;8.70;99.90
66422;DHT22;53228;51.380;0.098;2023-11-21T04:42:36;8.70;99.90
66422;DHT22;53228;51.380;0.098;2023-11-21T04:45:05;8.70;99.90
66422;DHT22;53228;51.380;0.098;2023-11-21T04:47:37;8.70;99.90
66422;DHT22;53228;51.380;0.098;2023-11-21T04:50:05;8.70;99.90
66422;DHT22;53228;51.380;0.098;2023-11-21T04:52:33;8.60;99.90
66422;DHT22;53228;51.380;0.098;2023-11-21T04:55:01;8.60;99.90
66422;DHT22;53228;51.380;0.098;2023-11-21T04:57:30;8.60;99.90
66422;DHT22;53228;51.380;0.098;2023-11-21T04:59:58;8.60;99.90
66422;DHT22;53228;51.380;0.098;2023-11-21T05:02:25;8.60;99.90
66422;DHT22;53228;51.380;0.098;2023-11-21T05:05:02;8.60;99.90
66422;DHT22;53228;51.380;0.098;2023-11-21T05:07:33;8.60;99.90
66422;DHT22;53228;51.380;0.098;2023-11-21T05:10:06;8.60;99.90
66422;DHT22;53228;51.380;0.098;2023-11-21T05:12:42;8.60;99.90
66422;DHT22;53228;51.380;0.098;2023-11-21T05:15:13;8.60;99.90
66422;DHT22;53228;51.380;0.098;2023-11-21T05:17:41;8.60;99.90
66422;DHT22;53228;51.380;0.098;2023-11-21T05:20:11;8.50;99.90
66422;DHT22;53228;51.380;0.098;2023-11-21T05:22:41;8.50;99.90
66422;DHT22;53228;51.380;0.098;2023-11-21T05:25:09;8.50;99.90
66422;DHT22;53228;51.380;0.098;2023-11-21T05:27:38;8.50;99.90
66422;DHT22;53228;51.380;0.098;2023-11-21T05:30:07;8.50;99.90
66422;DHT22;53228;51.380;0.098;2023-11-21T05:32:39;8.50;99.90
66422;DHT22;53228;51.380;0.098;2023-11-21T05:35:07;8.40;99.90
66422;DHT22;53228;51.380;0.098;2023-11-21T05:37:39;8.40;99.90
66422;DHT22;53228;51.380;0.098;2023-11-21T05:40:08;8.40;99.90
66422;DHT22;53228;51.380;0.098;2023-11-21T05:42:36;8.40;99.90
66422;DHT22;53228;51.380;0.098;2023-11-21T05:45:05;8.30;99.90
66422;DHT22;53228;51.380;0.098;2023-11-21T05:47:41;8.20;99.90
66422;DHT22;53228;51.380;0.098;2023-11-21T05:50:10;8.10;99.90
66422;DHT22;53228;51.380;0.098;2023-11-21T05:52:43;8.10;99.90
66422;DHT22;53228;51.380;0.098;2023-11-21T05:55:12;8.00;99.90
66422;DHT22;53228;51.380;0.098;2023-11-21T05:57:42;8.00;99.90
66422;DHT22;53228;51.380;0.098;2023-11-21T06:00:12;7.90;99.90
66422;DHT22;53228;51.380;0.098;2023-11-21T06:02:49;7.80;99.90
66422;DHT22;53228;51.380;0.098;2023-11-21T06:05:23;7.80;99.90
66422;DHT22;53228;51.380;0.098;2023-11-21T06:07:55;7.80;99.90
66422;DHT22;53228;51.380;0.098;2023-11-21T06:10:26;7.80;99.90
66422;DHT22;53228;51.380;0.098;2023-11-21T06:12:58;7.70;99.90
66422;DHT22;53228;51.380;0.098;2023-11-21T06:15:30;7.40;99.90
66422;DHT22;53228;51.380;0.098;2023-11-21T06:17:58;7.70;99.90
66422;DHT22;53228;51.380;0.098;2023-11-21T06:20:27;7.70;99.90
66422;DHT22;53228;51.380;0.098;2023-11-21T06:22:55;7.70;99.90
66422;DHT22;53228;51.380;0.098;2023-11-21T06:25:25;7.70;99.90
66422;DHT22;53228;51.380;0.098;2023-11-21T06:27:53;7.00;99.90
66422;DHT22;53228;51.380;0.098;2023-11-21T06:30:21;7.70;99.90
66422;DHT22;53228;51.380;0.098;2023-11-21T06:32:49;7.70;99.90
66422;DHT22;53228;51.380;0.098;2023-11-21T06:35:18;7.70;99.90
66422;DHT22;53228;51.380;0.098;2023-11-21T06:37:46;7.70;99.90
66422;DHT22;53228;51.380;0.098;2023-11-21T06:40:18;7.70;99.90
66422;DHT22;53228;51.380;0.098;2023-11-21T06:42:47;7.70;99.90
66422;DHT22;53228;51.380;0.098;2023-11-21T06:45:16;7.70;99.90
66422;DHT22;53228;51.380;0.098;2023-11-21T06:47:44;7.70;99.90
66422;DHT22;53228;51.380;0.098;2023-11-21T06:50:12;6.90;99.90
66422;DHT22;53228;51.380;0.098;2023-11-21T06:55:11;7.70;99.90
66422;DHT22;53228;51.380;0.098;2023-11-21T06:57:39;7.70;99.90
66422;DHT22;53228;51.380;0.098;2023-11-21T07:00:10;7.70;99.90
66422;DHT22;53228;51.380;0.098;2023-11-21T07:02:39;7.70;99.90
66422;DHT22;53228;51.380;0.098;2023-11-21T07:05:07;7.70;99.90
66422;DHT22;53228;51.380;0.098;2023-11-21T07:07:35;7.30;99.90
66422;DHT22;53228;51.380;0.098;2023-11-21T07:10:05;7.70;99.90
66422;DHT22;53228;51.380;0.098;2023-11-21T07:12:33;7.70;99.90
66422;DHT22;53228;51.380;0.098;2023-11-21T07:15:01;7.70;99.90
66422;DHT22;53228;51.380;0.098;2023-11-21T07:17:30;9.70;99.90
66422;DHT22;53228;51.380;0.098;2023-11-21T07:19:59;7.70;99.90
66422;DHT22;53228;51.380;0.098;2023-11-21T07:22:26;7.70;99.90
66422;DHT22;53228;51.380;0.098;2023-11-21T07:24:55;7.70;99.90
66422;DHT22;53228;51.380;0.098;2023-11-21T07:27:29;7.80;99.90
66422;DHT22;53228;51.380;0.098;2023-11-21T07:29:57;7.50;99.90
66422;DHT22;53228;51.380;0.098;2023-11-21T07:34:54;7.80;99.90
66422;DHT22;53228;51.380;0.098;2023-11-21T07:37:23;8.80;99.90
66422;DHT22;53228;51.380;0.098;2023-11-21T07:39:50;7.90;99.90
66422;DHT22;53228;51.380;0.098;2023-11-21T07:42:25;8.00;99.90
66422;DHT22;53228;51.380;0.098;2023-11-21T07:44:53;8.00;99.90
66422;DHT22;53228;51.380;0.098;2023-11-21T07:47:21;8.00;99.90
66422;DHT22;53228;51.380;0.098;2023-11-21T07:49:49;8.00;99.90
66422;DHT22;53228;51.380;0.098;2023-11-21T07:52:17;8.10;99.90
66422;DHT22;53228;51.380;0.098;2023-11-21T07:54:47;8.10;99.90
66422;DHT22;53228;51.380;0.098;2023-11-21T07:57:15;8.10;99.90
66422;DHT22;53228;51.380;0.098;2023-11-21T07:59:42;8.10;99.90
66422;DHT22;53228;51.380;0.098;2023-11-21T08:02:10;8.10;99.90
66422;DHT22;53228;51.380;0.098;2023-11-21T08:04:37;8.20;99.90
66422;DHT22;53228;51.380;0.098;2023-11-21T08:07:05;8.20;99.90
66422;DHT22;53228;51.380;0.098;2023-11-21T08:09:33;8.20;99.90
66422;DHT22;53228;51.380;0.098;2023-11-21T08:12:02;8.20;99.90
66422;DHT22;53228;51.380;0.098;2023-11-21T08:14:30;7.90;99.90
66422;DHT22;53228;51.380;0.098;2023-11-21T08:16:58;8.30;99.90
66422;DHT22;53228;51.380;0.098;2023-11-21T08:21:55;8.30;99.90
66422;DHT22;53228;51.380;0.098;2023-11-21T08:24:23;8.40;99.90
66422;DHT22;53228;51.380;0.098;2023-11-21T08:26:50;8.40;99.90
66422;DHT22;53228;51.380;0.098;2023-11-21T08:29:19;8.40;99.90
66422;DHT22;53228;51.380;0.098;2023-11-21T08:31:47;8.40;99.90
66422;DHT22;53228;51.380;0.098;2023-11-21T08:34:15;8.50;99.90
66422;DHT22;53228;51.380;0.098;2023-11-21T08:36:43;8.50;99.90
66422;DHT22;53228;51.380;0.098;2023-11-21T08:39:11;8.50;99.90
66422;DHT22;53228;51.380;0.098;2023-11-21T08:41:40;8.60;99.90
66422;DHT22;53228;51.380;0.098;2023-11-21T08:44:08;8.60;99.90
66422;DHT22;53228;51.380;0.098;2023-11-21T08:46:36;9.20;99.90
66422;DHT22;53228;51.380;0.098;2023-11-21T08:49:05;8.60;99.90
66422;DHT22;53228;51.380;0.098;2023-11-21T08:51:33;8.60;99.90
66422;DHT22;53228;51.380;0.098;2023-11-21T08:54:01;8.60;99.90
66422;DHT22;53228;51.380;0.098;2023-11-21T08:56:31;8.60;99.90
66422;DHT22;53228;51.380;0.098;2023-11-21T08:58:59;8.70;99.90
66422;DHT22;53228;51.380;0.098;2023-11-21T09:01:29;8.70;99.90
66422;DHT22;53228;51.380;0.098;2023-11-21T09:04:00;9.10;99.90
66422;DHT22;53228;51.380;0.098;2023-11-21T09:06:28;8.80;99.90
66422;DHT22;53228;51.380;0.098;2023-11-21T09:08:55;8.80;99.90
66422;DHT22;53228;51.380;0.098;2023-11-21T09:11:23;8.80;99.90
66422;DHT22;53228;51.380;0.098;2023-11-21T09:13:52;8.80;99.90
66422;DHT22;53228;51.380;0.098;2023-11-21T09:16:20;8.80;99.90
66422;DHT22;53228;51.380;0.098;2023-11-21T09:18:48;8.80;99.90
66422;DHT22;53228;51.380;0.098;2023-11-21T09:21:15;8.70;99.90
66422;DHT22;53228;51.380;0.098;2023-11-21T09:23:46;8.70;99.90
66422;DHT22;53228;51.380;0.098;2023-11-21T09:26:14;8.70;99.90
66422;DHT22;53228;51.380;0.098;2023-11-21T09:28:44;8.70;99.90
66422;DHT22;53228;51.380;0.098;2023-11-21T09:31:15;8.70;99.90
66422;DHT22;53228;51.380;0.098;2023-11-21T09:33:50;8.60;99.90
66422;DHT22;53228;51.380;0.098;2023-11-21T09:36:17;8.60;99.90
66422;DHT22;53228;51.380;0.098;2023-11-21T09:38:45;8.70;99.90
66422;DHT22;53228;51.380;0.098;2023-11-21T09:44:05;8.70;99.90
66422;DHT22;53228;51.380;0.098;2023-11-21T09:46:41;9.00;99.90
66422;DHT22;53228;51.380;0.098;2023-11-21T09:49:10;8.70;99.90
66422;DHT22;53228;51.380;0.098;2023-11-21T09:51:47;8.70;99.90
66422;DHT22;53228;51.380;0.098;2023-11-21T09:54:16;8.70;99.90
66422;DHT22;53228;51.380;0.098;2023-11-21T09:56:44;8.80;99.90
66422;DHT22;53228;51.380;0.098;2023-11-21T09:59:15;8.80;99.90
66422;DHT22;53228;51.380;0.098;2023-11-21T10:01:43;8.80;99.90
66422;DHT22;53228;51.380;0.098;2023-11-21T10:04:11;8.90;99.90
66422;DHT22;53228;51.380;0.098;2023-11-21T10:06:41;8.90;99.90
66422;DHT22;53228;51.380;0.098;2023-11-21T10:09:14;9.00;99.90
66422;DHT22;53228;51.380;0.098;2023-11-21T10:11:42;9.00;99.90
66422;DHT22;53228;51.380;0.098;2023-11-21T10:14:11;9.00;99.90
66422;DHT22;53228;51.380;0.098;2023-11-21T10:16:41;9.10;99.90
66422;DHT22;53228;51.380;0.098;2023-11-21T10:19:12;7.50;99.90
66422;DHT22;53228;51.380;0.098;2023-11-21T10:21:43;9.10;99.90
66422;DHT22;53228;51.380;0.098;2023-11-21T10:24:10;9.10;99.90
66422;DHT22;53228;51.380;0.098;2023-11-21T10:26:40;9.20;99.90
66422;DHT22;53228;51.380;0.098;2023-11-21T10:29:19;9.20;99.90
66422;DHT22;53228;51.380;0.098;2023-11-21T10:31:50;9.00;99.90
66422;DHT22;53228;51.380;0.098;2023-11-21T10:34:20;9.20;99.90
66422;DHT22;53228;51.380;0.098;2023-11-21T10:36:48;9.20;99.90
66422;DHT22;53228;51.380;0.098;2023-11-21T10:39:20;9.20;99.90
66422;DHT22;53228;51.380;0.098;2023-11-21T10:41:50;9.30;99.90
66422;DHT22;53228;51.380;0.098;2023-11-21T10:44:18;9.30;99.90
66422;DHT22;53228;51.380;0.098;2023-11-21T10:46:52;9.30;99.90
66422;DHT22;53228;51.380;0.098;2023-11-21T10:49:25;9.50;99.90
66422;DHT22;53228;51.380;0.098;2023-11-21T10:51:54;9.40;99.90
66422;DHT22;53228;51.380;0.098;2023-11-21T10:54:24;9.40;99.90
66422;DHT22;53228;51.380;0.098;2023-11-21T10:57:00;9.40;99.90
66422;DHT22;53228;51.380;0.098;2023-11-21T10:59:29;9.40;99.90
66422;DHT22;53228;51.380;0.098;2023-11-21T11:01:59;9.40;99.90
66422;DHT22;53228;51.380;0.098;2023-11-21T11:04:30;9.40;99.90
66422;DHT22;53228;51.380;0.098;2023-11-21T11:07:02;9.50;99.90
66422;DHT22;53228;51.380;0.098;2023-11-21T11:09:33;9.70;99.90
66422;DHT22;53228;51.380;0.098;2023-11-21T11:12:03;10.10;99.90
66422;DHT22;53228;51.380;0.098;2023-11-21T11:14:34;10.80;99.90
66422;DHT22;53228;51.380;0.098;2023-11-21T11:17:02;11.30;99.90
66422;DHT22;53228;51.380;0.098;2023-11-21T11:19:33;12.30;99.90
66422;DHT22;53228;51.380;0.098;2023-11-21T11:25:30;13.70;99.90
66422;DHT22;53228;51.380;0.098;2023-11-21T11:28:08;14.00;99.90
66422;DHT22;53228;51.380;0.098;2023-11-21T11:31:10;14.10;99.90
66422;DHT22;53228;51.380;0.098;2023-11-21T11:36:25;14.10;99.90
66422;DHT22;53228;51.380;0.098;2023-11-21T11:38:53;14.10;99.90
66422;DHT22;53228;51.380;0.098;2023-11-21T11:41:30;14.00;99.90
66422;DHT22;53228;51.380;0.098;2023-11-21T11:44:03;13.70;99.90
66422;DHT22;53228;51.380;0.098;2023-11-21T11:46:52;12.20;99.90
66422;DHT22;53228;51.380;0.098;2023-11-21T11:49:27;12.60;99.90
66422;DHT22;53228;51.380;0.098;2023-11-21T11:55:01;11.90;99.90
66422;DHT22;53228;51.380;0.098;2023-11-21T11:57:34;11.90;99.90
66422;DHT22;53228;51.380;0.098;2023-11-21T12:02:39;12.60;99.90
66422;DHT22;53228;51.380;0.098;2023-11-21T12:05:09;13.10;99.90
66422;DHT22;53228;51.380;0.098;2023-11-21T12:10:17;13.20;99.90
66422;DHT22;53228;51.380;0.098;2023-11-21T12:12:54;12.90;99.90
66422;DHT22;53228;51.380;0.098;2023-11-21T12:15:23;12.70;99.90
66422;DHT22;53228;51.380;0.098;2023-11-21T12:17:52;12.50;99.90
66422;DHT22;53228;51.380;0.098;2023-11-21T12:20:21;12.50;99.90
66422;DHT22;53228;51.380;0.098;2023-11-21T12:22:54;12.30;99.90
66422;DHT22;53228;51.380;0.098;2023-11-21T12:25:23;12.20;99.90
66422;DHT22;53228;51.380;0.098;2023-11-21T12:27:52;12.10;99.90
66422;DHT22;53228;51.380;0.098;2023-11-21T12:30:22;11.90;99.90
66422;DHT22;53228;51.380;0.098;2023-11-21T12:32:52;11.70;99.90
66422;DHT22;53228;51.380;0.098;2023-11-21T12:35:24;11.50;99.90
66422;DHT22;53228;51.380;0.098;2023-11-21T12:37:54;11.10;99.90
66422;DHT22;53228;51.380;0.098;2023-11-21T12:40:22;11.00;99.90
66422;DHT22;53228;51.380;0.098;2023-11-21T12:42:55;10.90;99.90
66422;DHT22;53228;51.380;0.098;2023-11-21T12:45:27;10.80;99.90
66422;DHT22;53228;51.380;0.098;2023-11-21T12:48:03;10.90;99.90
66422;DHT22;53228;51.380;0.098;2023-11-21T12:50:36;10.80;99.90
66422;DHT22;53228;51.380;0.098;2023-11-21T12:53:09;10.90;99.90
66422;DHT22;53228;51.380;0.098;2023-11-21T12:55:39;11.00;99.90
66422;DHT22;53228;51.380;0.098;2023-11-21T12:58:10;11.00;99.90
66422;DHT22;53228;51.380;0.098;2023-11-21T13:00:47;11.00;99.90
66422;DHT22;53228;51.380;0.098;2023-11-21T13:03:16;11.00;99.90
66422;DHT22;53228;51.380;0.098;2023-11-21T13:05:47;10.90;99.90
66422;DHT22;53228;51.380;0.098;2023-11-21T13:08:21;10.80;99.90
66422;DHT22;53228;51.380;0.098;2023-11-21T13:10:53;10.80;99.90
66422;DHT22;53228;51.380;0.098;2023-11-21T13:13:24;10.70;99.90
66422;DHT22;53228;51.380;0.098;2023-11-21T13:15:54;10.70;99.90
66422;DHT22;53228;51.380;0.098;2023-11-21T13:18:26;10.70;99.90
66422;DHT22;53228;51.380;0.098;2023-11-21T13:21:05;10.70;99.90
66422;DHT22;53228;51.380;0.098;2023-11-21T13:23:39;10.70;99.90
66422;DHT22;53228;51.380;0.098;2023-11-21T13:26:08;10.80;99.90
66422;DHT22;53228;51.380;0.098;2023-11-21T13:28:37;10.80;99.90
66422;DHT22;53228;51.380;0.098;2023-11-21T13:31:06;10.80;99.90
66422;DHT22;53228;51.380;0.098;2023-11-21T13:33:39;10.80;99.90
66422;DHT22;53228;51.380;0.098;2023-11-21T13:36:10;10.90;99.90
66422;DHT22;53228;51.380;0.098;2023-11-21T13:38:39;10.90;99.90
66422;DHT22;53228;51.380;0.098;2023-11-21T13:41:10;11.00;99.90
66422;DHT22;53228;51.380;0.098;2023-11-21T13:43:41;11.00;99.90
66422;DHT22;53228;51.380;0.098;2023-11-21T13:46:15;11.00;99.90
66422;DHT22;53228;51.380;0.098;2023-11-21T13:48:49;11.00;99.90
66422;DHT22;53228;51.380;0.098;2023-11-21T13:51:24;11.00;99.90
66422;DHT22;53228;51.380;0.098;2023-11-21T13:54:05;11.00;99.90
66422;DHT22;53228;51.380;0.098;2023-11-21T13:56:37;10.90;99.90
66422;DHT22;53228;51.380;0.098;2023-11-21T13:59:07;10.80;99.90
66422;DHT22;53228;51.380;0.098;2023-11-21T14:01:48;10.70;99.90
66422;DHT22;53228;51.380;0.098;2023-11-21T14:04:28;10.60;99.90
66422;DHT22;53228;51.380;0.098;2023-11-21T14:06:58;10.50;99.90
66422;DHT22;53228;51.380;0.098;2023-11-21T14:09:29;10.40;99.90
66422;DHT22;53228;51.380;0.098;2023-11-21T14:12:11;10.30;99.90
66422;DHT22;53228;51.380;0.098;2023-11-21T14:14:40;10.30;99.90
66422;DHT22;53228;51.380;0.098;2023-11-21T14:17:08;10.30;99.90
66422;DHT22;53228;51.380;0.098;2023-11-21T14:19:38;10.30;99.90
66422;DHT22;53228;51.380;0.098;2023-11-21T14:22:11;10.20;99.90
66422;DHT22;53228;51.380;0.098;2023-11-21T14:24:39;10.10;99.90
66422;DHT22;53228;51.380;0.098;2023-11-21T14:27:14;10.10;99.90
66422;DHT22;53228;51.380;0.098;2023-11-21T14:29:44;10.00;99.90
66422;DHT22;53228;51.380;0.098;2023-11-21T14:32:13;9.90;99.90
66422;DHT22;53228;51.380;0.098;2023-11-21T14:34:42;9.80;99.90
66422;DHT22;53228;51.380;0.098;2023-11-21T14:37:14;9.70;99.90
66422;DHT22;53228;51.380;0.098;2023-11-21T14:39:42;9.60;99.90
66422;DHT22;53228;51.380;0.098;2023-11-21T14:42:13;9.60;99.90
66422;DHT22;53228;51.380;0.098;2023-11-21T14:44:43;9.50;99.90
66422;DHT22;53228;51.380;0.098;2023-11-21T14:47:11;9.40;99.90
66422;DHT22;53228;51.380;0.098;2023-11-21T14:49:44;9.30;99.90
66422;DHT22;53228;51.380;0.098;2023-11-21T14:52:22;9.20;99.90
66422;DHT22;53228;51.380;0.098;2023-11-21T14:55:04;9.20;99.90
66422;DHT22;53228;51.380;0.098;2023-11-21T14:58:07;9.10;99.90
66422;DHT22;53228;51.380;0.098;2023-11-21T15:00:39;9.10;99.90
66422;DHT22;53228;51.380;0.098;2023-11-21T15:03:13;9.10;99.90
66422;DHT22;53228;51.380;0.098;2023-11-21T15:06:11;10.20;99.90
66422;DHT22;53228;51.380;0.098;2023-11-21T15:08:56;9.10;99.90
66422;DHT22;53228;51.380;0.098;2023-11-21T15:11:47;9.10;99.90
66422;DHT22;53228;51.380;0.098;2023-11-21T15:14:15;9.10;99.90
66422;DHT22;53228;51.380;0.098;2023-11-21T15:16:48;9.10;99.90
66422;DHT22;53228;51.380;0.098;2023-11-21T15:19:21;9.10;99.90
66422;DHT22;53228;51.380;0.098;2023-11-21T15:21:54;9.10;99.90
66422;DHT22;53228;51.380;0.098;2023-11-21T15:24:22;9.20;99.90
66422;DHT22;53228;51.380;0.098;2023-11-21T15:26:49;9.20;99.90
66422;DHT22;53228;51.380;0.098;2023-11-21T15:29:17;9.20;99.90
66422;DHT22;53228;51.380;0.098;2023-11-21T15:31:45;9.10;99.90
66422;DHT22;53228;51.380;0.098;2023-11-21T15:34:16;9.10;99.90
66422;DHT22;53228;51.380;0.098;2023-11-21T15:36:44;9.20;99.90
66422;DHT22;53228;51.380;0.098;2023-11-21T15:39:12;9.10;99.90
66422;DHT22;53228;51.380;0.098;2023-11-21T15:41:39;7.00;99.90
66422;DHT22;53228;51.380;0.098;2023-11-21T15:44:08;9.10;99.90
66422;DHT22;53228;51.380;0.098;2023-11-21T15:46:38;9.20;99.90
66422;DHT22;53228;51.380;0.098;2023-11-21T15:49:10;9.20;99.90
66422;DHT22;53228;51.380;0.098;2023-11-21T15:51:45;9.20;99.90
66422;DHT22;53228;51.380;0.098;2023-11-21T15:54:21;9.20;99.90
66422;DHT22;53228;51.380;0.098;2023-11-21T15:56:49;9.20;99.90
66422;DHT22;53228;51.380;0.098;2023-11-21T15:59:16;9.20;99.90
66422;DHT22;53228;51.380;0.098;2023-11-21T16:01:44;9.20;99.90
66422;DHT22;53228;51.380;0.098;2023-11-21T16:04:14;9.20;99.90
66422;DHT22;53228;51.380;0.098;2023-11-21T16:06:44;9.20;99.90
66422;DHT22;53228;51.380;0.098;2023-11-21T16:09:13;9.20;99.90
66422;DHT22;53228;51.380;0.098;2023-11-21T16:12:01;9.10;99.90
66422;DHT22;53228;51.380;0.098;2023-11-21T16:14:31;9.10;99.90
66422;DHT22;53228;51.380;0.098;2023-11-21T16:17:28;9.00;99.90
66422;DHT22;53228;51.380;0.098;2023-11-21T16:19:56;9.00;99.90
66422;DHT22;53228;51.380;0.098;2023-11-21T16:22:24;8.90;99.90
66422;DHT22;53228;51.380;0.098;2023-11-21T16:24:52;8.80;99.90
66422;DHT22;53228;51.380;0.098;2023-11-21T16:27:20;8.80;99.90
66422;DHT22;53228;51.380;0.098;2023-11-21T16:29:48;8.70;99.90